Date,TemperatureHighF,TemperatureAvgF,TemperatureLowF,DewpointHighF,DewpointAvgF,DewpointLowF,HumidityHigh,HumidityAvg,HumidityLow,PressureMaxIn,PressureMinIn,WindSpeedMaxMPH,WindSpeedAvgMPH,GustSpeedMaxMPH,PrecipitationSumIn
2013-8-1,69,67,65,69,67,64,100,99,95,29.97,29.76,11,1,15,0.87
2013-8-2,85,74,64,73,66,59,100,80,44,29.87,29.74,11,1,11,0.01
2013-8-3,76,68,62,71,66,62,100,94,80,29.86,29.78,10,1,11,0.03
2013-8-4,81,70,59,65,58,50,100,71,38,29.94,29.77,16,2,19,0.00
2013-8-5,81,67,54,61,53,45,98,65,32,30.01,29.89,13,2,13,0.00
2013-8-6,84,68,54,65,59,50,100,76,34,30.06,29.96,12,2,13,0.00
2013-8-7,79,70,63,69,66,62,100,89,64,30.07,29.97,13,2,14,0.00
2013-8-8,88,75,68,79,72,68,100,92,61,29.99,29.87,13,1,13,0.35
2013-8-9,87,77,72,77,74,71,100,91,67,29.92,29.69,12,2,13,0.02
2013-8-10,87,75,67,73,67,61,100,78,46,29.98,29.79,10,1,10,0.00
2013-8-11,88,73,58,68,60,53,100,68,39,30.08,29.89,8,2,8,0.00
2013-8-12,89,73,66,70,67,59,100,84,40,29.97,29.82,8,1,9,0.06
2013-8-13,85,72,66,72,68,63,100,91,56,29.86,29.59,13,1,13,0.86
2013-8-14,76,66,55,65,54,47,99,67,44,30.04,29.70,21,3,21,0.00
2013-8-15,81,65,51,59,53,41,100,70,29,30.12,29.96,10,1,11,0.00
2013-8-16,85,67,51,65,55,47,100,73,30,30.18,30.02,9,0,9,0.00
2013-8-17,87,68,52,66,57,52,100,74,33,30.22,30.10,8,1,9,0.00
2013-8-18,77,66,60,66,62,56,100,87,52,30.22,30.05,10,1,11,0.02
2013-8-19,80,69,60,71,64,59,100,87,54,30.10,29.95,9,0,9,0.00
2013-8-20,91,75,62,73,66,61,100,77,38,30.06,29.94,7,1,9,0.00
2013-8-21,92,77,61,71,64,55,100,73,31,30.13,29.94,8,1,9,0.00
2013-8-22,82,72,68,76,71,68,100,98,73,30.00,29.80,12,1,12,0.81
2013-8-23,80,72,65,70,64,51,100,78,39,30.03,29.81,15,2,15,0.00
2013-8-24,85,69,58,61,54,46,100,63,29,30.32,30.03,14,3,14,0.00
2013-8-25,85,67,52,69,56,51,100,74,34,30.37,30.16,10,1,10,0.00
2013-8-26,86,72,60,70,63,57,98,77,51,30.21,29.85,10,1,19,0.01
2013-8-27,90,76,68,72,68,64,100,79,45,29.86,29.72,15,2,15,0.05
2013-8-28,79,71,66,75,71,66,100,99,78,29.83,29.74,6,0,6,0.36
2013-8-29,84,72,67,71,69,65,100,91,59,29.97,29.80,10,2,10,0.00
2013-8-30,86,74,67,72,69,67,100,88,60,29.97,29.78,9,1,9,0.00
2013-8-31,87,76,68,75,72,68,100,89,64,29.81,29.67,12,1,12,0.00